Flight Track Log - Related Links

Times and Time Zones

All times are in EDT time to prevent confusion due to time zone crossing. See the N364PH flight status page for this flight to view local times or setup timezone preferences in your user account.

Time Position Orientation Groundspeed Altitude Reporting Facility
EDT Latitude Longitude Course Direction KTS MPH feet Rate Location/Type
Wed 06:00:00 PM 38.6678 -77.2838 154° Southeast  Level Estimated
Wed 06:01:00 PM 38.6212 -77.2546 154° Southeast  Level Estimated
Wed 06:02:00 PM 38.5746 -77.2254 154° Southeast  Level Estimated
Wed 06:03:00 PM 38.5279 -77.1962 154° Southeast  Level Estimated
Wed 06:04:00 PM 38.4813 -77.1671 154° Southeast  Level Estimated
Wed 06:05:00 PM 38.4346 -77.1380 154° Southeast  Level Estimated
Wed 06:06:00 PM 38.3879 -77.1090 154° Southeast  Level Estimated
Wed 06:07:00 PM 38.3413 -77.0800 154° Southeast  Level Estimated
Wed 06:08:00 PM 38.2946 -77.0510 154° Southeast  Level Estimated
Wed 06:09:00 PM 38.2479 -77.0221 154° Southeast  Level Estimated
Wed 06:10:00 PM 38.2012 -76.9932 154° Southeast  Level Estimated
Wed 06:11:00 PM 38.1545 -76.9644 154° Southeast  Level Estimated
Wed 06:12:00 PM 38.1078 -76.9356 154° Southeast  Level Estimated
Wed 06:13:00 PM 38.0611 -76.9068 154° Southeast  Level Estimated
Wed 06:14:00 PM 38.0144 -76.8781 154° Southeast  Level Estimated
Wed 06:15:00 PM 37.9676 -76.8494 154° Southeast  Level Estimated
Wed 06:16:00 PM 37.9209 -76.8207 154° Southeast  Level Estimated
Wed 06:17:00 PM 37.8741 -76.7921 154° Southeast  Level Estimated
Wed 06:18:00 PM 37.8274 -76.7635 154° Southeast  Level Estimated
Wed 06:19:00 PM 37.7806 -76.7349 154° Southeast  Level Estimated
Wed 06:20:00 PM 37.7339 -76.7064 154° Southeast  Level Estimated
Wed 06:21:00 PM 37.6871 -76.6779 154° Southeast  Level Estimated
Wed 06:22:00 PM 37.6403 -76.6495 154° Southeast  Level Estimated
Wed 06:23:00 PM 37.5936 -76.6210 154° Southeast  Level Estimated
Wed 06:24:00 PM 37.5468 -76.5927 154° Southeast  Level Estimated
Wed 06:25:00 PM 37.5000 -76.5643 154° Southeast  Level Estimated
Wed 06:26:00 PM 37.4532 -76.5360 154° Southeast  Level Estimated
Wed 06:27:00 PM 37.4063 -76.5077 154° Southeast  Level Estimated
Wed 06:28:00 PM 37.3595 -76.4795 154° Southeast  Level Estimated
Wed 06:29:00 PM 37.3127 -76.4513 154° Southeast  Level Estimated
Wed 06:30:00 PM 37.2659 -76.4231 154° Southeast  Level Estimated
Wed 06:31:00 PM 37.2190 -76.3950 154° Southeast  Level Estimated
Wed 06:32:00 PM 37.1722 -76.3669 154° Southeast  Level Estimated
Wed 06:33:00 PM 37.1254 -76.3389 154° Southeast  Level Estimated
Wed 06:34:00 PM 37.0785 -76.3108 154° Southeast  Level Estimated
Wed 06:35:00 PM 37.0316 -76.2828 155° Southeast  Level Estimated
Wed 06:36:00 PM 36.9848 -76.2549 155° Southeast  Level Estimated
Wed 06:37:00 PM 36.9379 -76.2270 155° Southeast  Level Estimated
Wed 06:38:00 PM 36.8946 -76.2012 155° Southeast  Level Estimated
Wed 06:39:00 PM 36.8946 -76.2012 302° West  Level Estimated
Wed 06:40:00 PM 36.8946 -76.2012 302° West  Level Estimated
Wed 06:41:00 PM 36.8946 -76.2012 302° West  Level Estimated
Wed 06:42:00 PM 36.8946 -76.2012 302° West  Level Estimated
Wed 06:43:00 PM 36.8946 -76.2012 302° West  Level Estimated
Wed 06:44:00 PM 36.8946 -76.2012 302° West  Level Estimated
Wed 06:45:00 PM 36.8946 -76.2012 302° West  Level Estimated
Wed 06:46:00 PM 36.8946 -76.2012 302° West  Level Estimated
Wed 06:47:00 PM 36.8946 -76.2012 302° West  Level Estimated
Wed 06:48:00 PM 36.8946 -76.2012 302° West  Level Estimated
Wed 06:49:00 PM 36.8946 -76.2012 302° West  Level Estimated
Wed 06:50:00 PM 36.8946 -76.2012 302° West  Level Estimated
Wed 06:51:00 PM 36.8946 -76.2012 302° West  Level Estimated
Wed 06:52:00 PM 36.8946 -76.2012 302° West  Level Estimated
Wed 06:53:00 PM 36.8946 -76.2012 302° West  Level Estimated
Wed 06:54:00 PM 36.8946 -76.2012 302° West  Level Estimated

Login

Don't have an account? Register now (free) for customized features, flight alerts, and more!